createdAt,value
2022-11-19T00:00:41.047Z,92.28
2022-11-19T00:03:10.810Z,92.18
2022-11-19T00:05:42.345Z,92.20
2022-11-19T00:08:19.547Z,92.01
2022-11-19T00:10:49.980Z,92.04
2022-11-19T00:13:17.275Z,91.83
2022-11-19T00:15:47.084Z,91.86
2022-11-19T00:18:16.835Z,91.88
2022-11-19T00:20:46.536Z,91.80
2022-11-19T00:23:18.907Z,91.72
2022-11-19T00:25:48.595Z,91.73
2022-11-19T00:28:18.307Z,91.61
2022-11-19T00:30:48.806Z,91.57
2022-11-19T00:33:18.664Z,91.54
2022-11-19T00:35:48.376Z,91.39
2022-11-19T00:38:20.736Z,91.45
2022-11-19T00:40:50.443Z,91.54
2022-11-19T00:43:32.604Z,91.42
2022-11-19T00:46:02.368Z,91.46
2022-11-19T00:48:32.057Z,91.48
2022-11-19T00:51:02.197Z,91.41
2022-11-19T00:53:34.464Z,91.24
2022-11-19T00:56:05.103Z,91.42
2022-11-19T00:58:34.798Z,91.36
2022-11-19T01:01:04.525Z,91.32
2022-11-19T01:03:34.967Z,91.33
2022-11-19T01:06:04.684Z,91.27
2022-11-19T01:08:37.275Z,91.26
2022-11-19T01:11:08.652Z,91.21
2022-11-19T01:13:39.078Z,91.31
2022-11-19T01:16:11.676Z,91.30
2022-11-19T01:18:42.455Z,91.36
2022-11-19T01:21:14.224Z,91.40
2022-11-19T01:23:47.545Z,91.41
2022-11-19T01:26:18.342Z,91.49
2022-11-19T01:28:48.694Z,91.46
2022-11-19T01:31:20.816Z,91.48
2022-11-19T01:33:51.311Z,91.57
2022-11-19T01:36:23.076Z,91.51
2022-11-19T01:38:56.286Z,91.58
2022-11-19T01:41:28.280Z,91.55
2022-11-19T01:44:00.865Z,91.43
2022-11-19T01:46:33.484Z,91.41
2022-11-19T01:49:08.304Z,91.40
2022-11-19T01:51:40.919Z,91.41
2022-11-19T01:54:18.748Z,91.35
2022-11-19T01:56:48.497Z,91.26
2022-11-19T01:59:21.539Z,91.17
2022-11-19T02:01:51.557Z,91.07
2022-11-19T02:04:22.124Z,91.12
2022-11-19T02:06:52.140Z,91.00
2022-11-19T02:09:25.060Z,90.88
2022-11-19T02:12:09.662Z,90.80
2022-11-19T02:15:07.486Z,90.81
2022-11-19T02:17:53.982Z,90.71
2022-11-19T02:20:44.332Z,90.62
2022-11-19T02:23:56.140Z,90.67
2022-11-19T02:26:58.288Z,90.58
2022-11-19T02:29:53.199Z,90.59
2022-11-19T02:32:30.968Z,90.52
2022-11-19T02:35:06.794Z,90.55
2022-11-19T02:37:44.844Z,90.45
2022-11-19T02:40:22.938Z,90.45
2022-11-19T02:42:59.762Z,90.41
2022-11-19T02:45:38.101Z,90.46
2022-11-19T02:48:13.183Z,90.52
2022-11-19T02:50:48.043Z,90.49
2022-11-19T02:53:17.770Z,90.52
2022-11-19T02:56:10.539Z,90.66
2022-11-19T02:58:56.317Z,90.71
2022-11-19T03:01:47.810Z,90.75
2022-11-19T03:04:34.416Z,90.77
2022-11-19T03:07:07.933Z,90.88
2022-11-19T03:09:44.232Z,90.91
2022-11-19T03:12:21.881Z,90.92
2022-11-19T03:15:10.513Z,90.95
2022-11-19T03:17:56.757Z,90.97
2022-11-19T03:20:33.037Z,91.08
2022-11-19T03:23:07.941Z,91.11
2022-11-19T03:25:42.520Z,91.16
2022-11-19T03:28:16.599Z,91.18
2022-11-19T03:30:49.193Z,91.27
2022-11-19T03:33:25.779Z,91.18
2022-11-19T03:35:58.862Z,91.26
2022-11-19T03:38:32.468Z,91.28
2022-11-19T03:41:04.288Z,91.32
2022-11-19T03:43:40.756Z,91.36
2022-11-19T03:46:17.182Z,91.35
2022-11-19T03:48:52.927Z,91.39
2022-11-19T03:51:25.187Z,91.33
2022-11-19T03:53:55.806Z,91.37
2022-11-19T03:56:29.552Z,91.44
2022-11-19T03:59:02.002Z,91.41
2022-11-19T04:01:33.691Z,91.47
2022-11-19T04:04:18.873Z,91.50
2022-11-19T04:06:48.607Z,91.58
2022-11-19T04:09:19.083Z,91.55
2022-11-19T04:14:17.498Z,91.70
2022-11-19T04:16:47.413Z,91.65
2022-11-19T04:19:20.724Z,91.74
2022-11-19T04:21:50.879Z,91.81
2022-11-19T04:24:20.741Z,91.81
2022-11-19T04:26:50.444Z,91.91
2022-11-19T04:29:20.473Z,92.08
2022-11-19T04:31:50.456Z,91.99
2022-11-19T04:34:22.907Z,92.09
2022-11-19T04:36:52.621Z,92.17
2022-11-19T04:39:22.618Z,92.20
2022-11-19T04:41:52.501Z,92.27
2022-11-19T04:44:22.257Z,92.37
2022-11-19T04:46:51.993Z,92.35
2022-11-19T04:49:24.421Z,92.38
2022-11-19T04:51:54.205Z,92.38
2022-11-19T04:54:23.952Z,92.49
2022-11-19T04:56:53.691Z,92.55
2022-11-19T04:59:23.394Z,92.60
2022-11-19T05:01:53.144Z,92.63
2022-11-19T05:04:25.673Z,92.65
2022-11-19T05:06:55.453Z,92.72
2022-11-19T05:09:25.199Z,92.70
2022-11-19T05:11:54.936Z,92.73
2022-11-19T05:14:28.911Z,92.83
2022-11-19T05:17:00.167Z,92.76
2022-11-19T05:19:32.566Z,92.87
2022-11-19T05:22:02.271Z,92.86
2022-11-19T05:24:31.985Z,92.92
2022-11-19T05:27:01.697Z,92.94
2022-11-19T05:29:31.405Z,92.94
2022-11-19T05:32:01.220Z,92.98
2022-11-19T05:34:33.647Z,92.99
2022-11-19T05:37:03.381Z,92.95
2022-11-19T05:39:33.070Z,92.98
2022-11-19T05:42:02.780Z,93.13
2022-11-19T05:44:32.515Z,92.98
2022-11-19T05:47:02.203Z,93.15
2022-11-19T05:49:34.561Z,93.12
2022-11-19T05:52:04.308Z,93.17
2022-11-19T05:54:34.092Z,93.22
2022-11-19T05:57:03.956Z,93.15
2022-11-19T05:59:33.668Z,93.11
2022-11-19T06:02:03.400Z,93.18
2022-11-19T06:04:35.796Z,93.14
2022-11-19T06:07:05.550Z,93.19
2022-11-19T06:09:35.475Z,93.25
2022-11-19T06:12:05.243Z,93.31
2022-11-19T06:14:34.966Z,93.29
2022-11-19T06:17:04.711Z,93.25
2022-11-19T06:19:37.205Z,93.31
2022-11-19T06:22:06.944Z,93.29
2022-11-19T06:24:36.654Z,93.29
2022-11-19T06:27:06.763Z,93.31
2022-11-19T06:29:36.517Z,93.31
2022-11-19T06:32:06.546Z,93.30
2022-11-19T06:34:38.933Z,93.31
2022-11-19T06:37:08.680Z,93.31
2022-11-19T06:39:38.365Z,93.26
2022-11-19T06:42:20.604Z,93.39
2022-11-19T06:44:50.300Z,93.34
2022-11-19T06:47:20.082Z,93.30
2022-11-19T06:49:52.448Z,93.36
2022-11-19T06:52:22.158Z,93.29
2022-11-19T06:54:51.876Z,93.37
2022-11-19T06:57:21.623Z,93.38
2022-11-19T06:59:51.324Z,93.41
2022-11-19T07:02:21.678Z,93.36
2022-11-19T07:04:54.176Z,93.36
2022-11-19T07:07:24.083Z,93.39
2022-11-19T07:09:53.899Z,93.43
2022-11-19T07:12:23.631Z,93.44
2022-11-19T07:14:53.379Z,93.48
2022-11-19T07:17:23.116Z,93.55
2022-11-19T07:19:55.420Z,93.55
2022-11-19T07:22:25.325Z,93.50
2022-11-19T07:24:55.037Z,93.53
2022-11-19T07:27:24.758Z,93.56
2022-11-19T07:29:54.545Z,93.58
2022-11-19T07:32:24.435Z,93.74
2022-11-19T07:34:56.781Z,93.65
2022-11-19T07:37:26.790Z,93.62
2022-11-19T07:39:56.533Z,93.45
2022-11-19T07:42:38.674Z,93.73
2022-11-19T07:45:09.823Z,93.73
2022-11-19T07:47:39.567Z,93.71
2022-11-19T07:50:12.666Z,93.81
2022-11-19T07:52:42.451Z,93.77
2022-11-19T07:55:12.813Z,93.71
2022-11-19T07:57:42.592Z,93.80
2022-11-19T08:00:13.660Z,93.87
2022-11-19T08:02:43.376Z,93.87
2022-11-19T08:05:15.703Z,93.85
2022-11-19T08:07:45.451Z,93.87
2022-11-19T08:10:15.179Z,93.93
2022-11-19T08:13:03.251Z,93.93
2022-11-19T08:15:33.416Z,94.05
2022-11-19T08:18:12.685Z,94.07
2022-11-19T08:20:48.422Z,94.17
2022-11-19T08:23:18.427Z,94.29
2022-11-19T08:25:48.342Z,94.35
2022-11-19T08:28:18.068Z,94.53
2022-11-19T08:30:47.784Z,94.73
2022-11-19T08:33:17.488Z,94.67
2022-11-19T08:35:50.406Z,94.60
2022-11-19T08:38:20.129Z,94.84
2022-11-19T08:41:14.404Z,94.81
2022-11-19T08:43:41.737Z,94.87
2022-11-19T08:46:11.949Z,94.81
2022-11-19T08:48:41.634Z,94.56
2022-11-19T08:51:14.961Z,94.57
2022-11-19T08:53:44.912Z,94.47
2022-11-19T08:56:17.997Z,94.23
2022-11-19T08:58:48.321Z,94.18
2022-11-19T09:01:19.859Z,94.05
2022-11-19T09:03:50.009Z,93.93
2022-11-19T09:06:22.300Z,93.73
2022-11-19T09:08:52.032Z,93.63
2022-11-19T09:11:23.434Z,93.50
2022-11-19T09:13:53.108Z,93.30
2022-11-19T09:16:22.836Z,93.17
2022-11-19T09:18:52.707Z,93.07
2022-11-19T09:21:25.042Z,92.95
2022-11-19T09:23:54.742Z,92.61
2022-11-19T09:26:24.455Z,92.46
2022-11-19T09:28:55.363Z,92.40
2022-11-19T09:31:25.104Z,92.18
2022-11-19T09:33:55.660Z,92.05
2022-11-19T09:36:28.585Z,92.03
2022-11-19T09:39:02.308Z,91.81
2022-11-19T09:41:48.783Z,91.80
2022-11-19T09:44:31.995Z,91.67
2022-11-19T09:47:09.792Z,91.52
2022-11-19T09:49:45.341Z,91.43
2022-11-19T09:52:22.048Z,91.36
2022-11-19T09:54:55.158Z,91.15
2022-11-19T09:57:31.032Z,91.12
2022-11-19T10:00:04.517Z,90.85
2022-11-19T10:02:34.337Z,90.74
2022-11-19T10:05:04.268Z,90.72
2022-11-19T10:07:47.553Z,90.40
2022-11-19T10:10:34.124Z,90.39
2022-11-19T10:13:17.169Z,90.27
2022-11-19T10:15:59.640Z,90.02
2022-11-19T10:18:40.194Z,89.76
2022-11-19T10:21:17.326Z,89.78
2022-11-19T10:23:56.191Z,89.67
2022-11-19T10:26:34.975Z,89.53
2022-11-19T10:29:06.548Z,89.34
2022-11-19T10:31:39.879Z,89.28
2022-11-19T10:34:17.308Z,89.26
2022-11-19T10:36:50.942Z,89.10
2022-11-19T10:39:27.980Z,89.01
2022-11-19T10:42:04.306Z,88.84
2022-11-19T10:44:43.295Z,88.86
2022-11-19T10:47:19.584Z,88.76
2022-11-19T10:49:56.115Z,88.81
2022-11-19T10:52:30.104Z,88.63
2022-11-19T10:55:07.771Z,88.77
2022-11-19T10:57:37.778Z,88.76
2022-11-19T11:00:08.471Z,88.66
2022-11-19T11:02:47.608Z,88.70
2022-11-19T11:05:19.280Z,88.49
2022-11-19T11:07:52.661Z,88.52
2022-11-19T11:10:38.483Z,88.45
2022-11-19T11:13:23.984Z,88.40
2022-11-19T11:15:56.764Z,88.48
2022-11-19T11:18:28.889Z,88.46
2022-11-19T11:20:59.546Z,88.18
2022-11-19T11:23:31.110Z,88.22
2022-11-19T11:26:09.875Z,88.03
2022-11-19T11:28:39.964Z,87.88
2022-11-19T11:31:13.672Z,87.87
2022-11-19T11:33:45.212Z,87.77
2022-11-19T11:36:18.433Z,87.74
2022-11-19T11:38:50.426Z,87.63
2022-11-19T11:44:21.820Z,87.64
2022-11-19T11:46:53.528Z,87.62
2022-11-19T11:49:30.383Z,87.67
2022-11-19T11:52:19.475Z,87.43
2022-11-19T11:55:00.824Z,87.44
2022-11-19T11:57:35.932Z,87.54
2022-11-19T12:00:28.005Z,87.66
2022-11-19T12:03:03.014Z,87.69
2022-11-19T12:05:40.497Z,87.58
2022-11-19T12:08:16.594Z,87.64
2022-11-19T12:10:54.819Z,87.47
2022-11-19T12:13:54.919Z,87.64
2022-11-19T12:16:45.672Z,87.65
2022-11-19T12:19:35.932Z,87.73
2022-11-19T12:22:15.632Z,87.86
2022-11-19T12:25:04.763Z,87.93
2022-11-19T12:27:40.842Z,87.77
2022-11-19T12:30:18.533Z,87.93
2022-11-19T12:33:15.275Z,87.79
2022-11-19T12:35:57.056Z,87.89
2022-11-19T12:38:37.107Z,87.92
2022-11-19T12:41:20.608Z,87.96
2022-11-19T12:43:56.523Z,88.09
2022-11-19T12:46:43.326Z,88.10
2022-11-19T12:49:41.896Z,88.18
2022-11-19T12:52:32.481Z,88.03
2022-11-19T12:55:12.767Z,88.02
2022-11-19T12:57:50.787Z,88.09
2022-11-19T13:00:22.799Z,88.27
2022-11-19T13:03:07.407Z,88.23
2022-11-19T13:05:45.515Z,88.12
2022-11-19T13:08:21.290Z,88.04
2022-11-19T13:10:53.844Z,88.13
2022-11-19T13:13:29.125Z,88.03
2022-11-19T13:16:03.256Z,88.22
2022-11-19T13:18:39.054Z,88.09
2022-11-19T13:21:11.416Z,87.95
2022-11-19T13:23:45.325Z,88.01
2022-11-19T13:26:19.356Z,87.91
2022-11-19T13:28:53.446Z,88.13
2022-11-19T13:31:33.818Z,88.12
2022-11-19T13:34:18.535Z,87.97
2022-11-19T13:36:57.880Z,87.88
2022-11-19T13:39:34.388Z,88.00
2022-11-19T13:42:18.792Z,88.04
2022-11-19T13:44:48.953Z,87.93
2022-11-19T13:47:25.286Z,88.03
2022-11-19T13:50:02.628Z,88.13
2022-11-19T13:52:35.863Z,88.04
2022-11-19T13:55:07.305Z,87.93
2022-11-19T13:57:43.492Z,88.07
2022-11-19T14:00:26.348Z,88.18
2022-11-19T14:03:20.246Z,88.21
2022-11-19T14:06:22.774Z,88.15
2022-11-19T14:09:04.519Z,88.19
2022-11-19T14:11:53.522Z,88.27
2022-11-19T14:14:49.484Z,88.16
2022-11-19T14:17:41.004Z,88.22
2022-11-19T14:20:51.288Z,88.17
2022-11-19T14:24:01.159Z,88.30
2022-11-19T14:27:00.968Z,88.25
2022-11-19T14:29:56.842Z,88.25
2022-11-19T14:32:46.361Z,88.33
2022-11-19T14:35:34.819Z,88.40
2022-11-19T14:38:17.336Z,88.41
2022-11-19T14:40:50.248Z,88.36
2022-11-19T14:43:39.644Z,88.57
2022-11-19T14:46:27.303Z,88.68
2022-11-19T14:49:04.485Z,88.56
2022-11-19T14:51:40.369Z,88.74
2022-11-19T14:54:31.338Z,88.71
2022-11-19T14:57:11.937Z,88.77
2022-11-19T14:59:42.588Z,88.78
2022-11-19T15:02:25.947Z,88.98
2022-11-19T15:05:00.980Z,88.91
2022-11-19T15:08:14.848Z,88.98
2022-11-19T15:11:06.644Z,89.00
2022-11-19T15:13:40.731Z,88.92
2022-11-19T15:16:14.445Z,89.06
2022-11-19T15:19:10.992Z,89.30
2022-11-19T15:22:10.859Z,89.20
2022-11-19T15:24:56.996Z,89.20
2022-11-19T15:27:41.958Z,89.42
2022-11-19T15:30:20.844Z,89.50
2022-11-19T15:33:07.813Z,89.46
2022-11-19T15:36:06.186Z,89.63
2022-11-19T15:38:39.976Z,89.63
2022-11-19T15:41:10.494Z,89.74
2022-11-19T15:43:46.358Z,89.76
2022-11-19T15:46:29.917Z,89.65
2022-11-19T15:49:05.063Z,89.94
2022-11-19T15:51:41.874Z,89.87
2022-11-19T15:54:14.862Z,89.94
2022-11-19T15:56:50.918Z,89.90
2022-11-19T15:59:23.037Z,90.16
2022-11-19T16:02:03.911Z,90.20
2022-11-19T16:04:37.725Z,90.13
2022-11-19T16:07:10.120Z,90.30
2022-11-19T16:09:40.888Z,90.28
2022-11-19T16:12:35.375Z,90.19
2022-11-19T16:15:17.511Z,90.25
2022-11-19T16:17:50.546Z,90.31
2022-11-19T16:20:23.458Z,90.45
2022-11-19T16:22:59.954Z,90.43
2022-11-19T16:25:35.905Z,90.56
2022-11-19T16:28:09.348Z,90.71
2022-11-19T16:30:47.191Z,90.75
2022-11-19T16:33:23.224Z,90.63
2022-11-19T16:35:54.167Z,90.72
2022-11-19T16:38:30.339Z,90.68
2022-11-19T16:41:12.867Z,90.88
2022-11-19T16:43:48.684Z,91.01
2022-11-19T16:46:21.381Z,90.90
2022-11-19T16:49:02.662Z,90.93
2022-11-19T16:51:38.886Z,91.08
2022-11-19T16:54:11.023Z,91.11
2022-11-19T16:56:48.229Z,91.12
2022-11-19T16:59:23.997Z,91.10
2022-11-19T17:02:00.244Z,91.19
2022-11-19T17:04:34.519Z,91.22
2022-11-19T17:07:04.534Z,91.33
2022-11-19T17:09:41.873Z,91.45
2022-11-19T17:12:27.585Z,91.38
2022-11-19T17:15:00.150Z,91.51
2022-11-19T17:17:42.779Z,91.42
2022-11-19T17:20:42.457Z,91.65
2022-11-19T17:23:19.991Z,91.61
2022-11-19T17:25:51.396Z,91.52
2022-11-19T17:28:28.410Z,91.72
2022-11-19T17:30:58.859Z,91.85
2022-11-19T17:33:32.685Z,91.72
2022-11-19T17:36:05.168Z,91.80
2022-11-19T17:38:37.975Z,91.90
2022-11-19T17:41:08.237Z,92.08
2022-11-19T17:43:52.403Z,92.34
2022-11-19T17:46:22.960Z,92.78
2022-11-19T17:48:53.875Z,92.99
2022-11-19T17:51:25.060Z,93.23
2022-11-19T17:53:58.035Z,93.22
2022-11-19T17:56:30.628Z,93.28
2022-11-19T17:59:01.208Z,93.22
2022-11-19T18:01:31.129Z,93.22
2022-11-19T18:04:00.944Z,93.12
2022-11-19T18:06:30.728Z,93.07
2022-11-19T18:09:03.094Z,92.98
2022-11-19T18:11:33.708Z,92.88
2022-11-19T18:14:09.938Z,92.87
2022-11-19T18:16:42.788Z,92.87
2022-11-19T18:19:16.832Z,92.64
2022-11-19T18:21:48.566Z,92.61
2022-11-19T18:24:21.285Z,92.54
2022-11-19T18:26:51.016Z,92.44
2022-11-19T18:29:21.044Z,92.32
2022-11-19T18:31:53.506Z,92.54
2022-11-19T18:34:25.528Z,92.47
2022-11-19T18:36:55.256Z,92.52
2022-11-19T18:39:28.055Z,92.47
2022-11-19T18:41:58.532Z,92.44
2022-11-19T18:44:35.088Z,92.32
2022-11-19T18:47:06.778Z,92.57
2022-11-19T18:49:36.559Z,92.47
2022-11-19T18:52:08.938Z,92.45
2022-11-19T18:54:41.276Z,92.49
2022-11-19T18:57:12.101Z,92.51
2022-11-19T18:59:41.975Z,92.62
2022-11-19T19:02:12.916Z,92.50
2022-11-19T19:04:42.974Z,92.60
2022-11-19T19:07:13.357Z,92.56
2022-11-19T19:09:46.047Z,92.69
2022-11-19T19:12:22.382Z,92.68
2022-11-19T19:14:54.752Z,92.87
2022-11-19T19:17:24.608Z,92.76
2022-11-19T19:19:54.319Z,92.93
2022-11-19T19:22:24.249Z,93.03
2022-11-19T19:24:58.299Z,93.09
2022-11-19T19:27:28.506Z,93.05
2022-11-19T19:29:58.416Z,93.07
2022-11-19T19:32:28.135Z,93.04
2022-11-19T19:34:58.058Z,93.13
2022-11-19T19:37:27.811Z,93.17
2022-11-19T19:40:00.300Z,93.28
2022-11-19T19:42:31.695Z,93.28
2022-11-19T19:45:01.465Z,93.32
2022-11-19T19:47:31.145Z,93.42
2022-11-19T19:50:00.890Z,93.42
2022-11-19T19:52:30.575Z,93.39
2022-11-19T19:55:04.201Z,93.58
2022-11-19T19:57:33.959Z,93.54
2022-11-19T20:00:03.701Z,93.54
2022-11-19T20:02:33.533Z,93.63
2022-11-19T20:05:03.267Z,93.67
2022-11-19T20:07:33.255Z,93.79
2022-11-19T20:10:05.641Z,93.57
2022-11-19T20:12:47.579Z,93.70
2022-11-19T20:15:17.420Z,93.69
2022-11-19T20:17:47.209Z,93.80
2022-11-19T20:20:17.432Z,93.94
2022-11-19T20:22:47.671Z,94.01
2022-11-19T20:25:21.186Z,93.89
2022-11-19T20:27:50.980Z,94.03
2022-11-19T20:30:20.936Z,94.08
2022-11-19T20:32:50.691Z,94.11
2022-11-19T20:35:20.426Z,94.23
2022-11-19T20:37:50.148Z,94.21
2022-11-19T20:40:22.660Z,94.46
2022-11-19T20:43:04.907Z,94.39
2022-11-19T20:45:34.682Z,94.38
2022-11-19T20:48:04.844Z,94.46
2022-11-19T20:50:34.568Z,94.62
2022-11-19T20:53:04.291Z,94.81
2022-11-19T20:55:48.548Z,94.84
2022-11-19T20:58:26.815Z,94.89
2022-11-19T21:01:02.277Z,94.91
2022-11-19T21:03:32.207Z,95.14
2022-11-19T21:06:03.533Z,95.07
2022-11-19T21:08:35.095Z,95.25
2022-11-19T21:11:12.676Z,95.25
2022-11-19T21:13:42.834Z,95.37
2022-11-19T21:16:15.819Z,95.63
2022-11-19T21:18:46.045Z,95.76
2022-11-19T21:21:17.476Z,95.72
2022-11-19T21:23:47.409Z,95.79
2022-11-19T21:26:21.693Z,95.96
2022-11-19T21:28:53.651Z,96.14
2022-11-19T21:31:37.926Z,96.32
2022-11-19T21:34:08.454Z,96.34
2022-11-19T21:36:38.415Z,96.58
2022-11-19T21:39:09.931Z,96.52
2022-11-19T21:41:42.491Z,96.68
2022-11-19T21:44:18.075Z,96.69
2022-11-19T21:46:50.920Z,96.87
2022-11-19T21:49:21.179Z,96.86
2022-11-19T21:51:51.313Z,97.05
2022-11-19T21:54:21.136Z,97.11
2022-11-19T21:56:53.553Z,97.41
2022-11-19T21:59:24.394Z,97.42
2022-11-19T22:01:55.034Z,97.52
2022-11-19T22:04:24.979Z,97.40
2022-11-19T22:06:54.698Z,97.46
2022-11-19T22:09:24.420Z,97.59
2022-11-19T22:11:57.070Z,97.67
2022-11-19T22:14:27.062Z,97.78
2022-11-19T22:16:57.102Z,97.75
2022-11-19T22:19:26.882Z,98.03
2022-11-19T22:21:56.543Z,97.87
2022-11-19T22:24:26.184Z,98.01
2022-11-19T22:26:58.774Z,98.02
2022-11-19T22:29:28.662Z,98.07
2022-11-19T22:31:58.342Z,98.15
2022-11-19T22:34:29.320Z,98.29
2022-11-19T22:36:59.055Z,98.47
2022-11-19T22:39:29.009Z,98.43
2022-11-19T22:42:02.025Z,98.49
2022-11-19T22:44:31.705Z,98.57
2022-11-19T22:47:02.626Z,98.48
2022-11-19T22:49:33.180Z,98.71
2022-11-19T22:52:02.908Z,98.70
2022-11-19T22:54:38.653Z,98.87
2022-11-19T22:57:14.089Z,98.78
2022-11-19T22:59:43.814Z,98.86
2022-11-19T23:02:13.526Z,98.88
2022-11-19T23:04:43.266Z,99.02
2022-11-19T23:07:13.005Z,98.87
2022-11-19T23:09:42.751Z,98.85
2022-11-19T23:12:27.523Z,98.91
2022-11-19T23:14:57.378Z,98.88
2022-11-19T23:17:27.175Z,98.97
2022-11-19T23:20:01.613Z,98.79
2022-11-19T23:22:34.098Z,99.20
2022-11-19T23:25:04.035Z,99.18
2022-11-19T23:27:36.586Z,99.13
2022-11-19T23:30:07.142Z,99.09
2022-11-19T23:32:36.888Z,99.17
2022-11-19T23:35:07.200Z,99.30
2022-11-19T23:37:36.854Z,99.31
2022-11-19T23:40:07.143Z,99.17
2022-11-19T23:42:39.436Z,99.33
2022-11-19T23:45:10.088Z,99.16
2022-11-19T23:47:40.212Z,99.36
2022-11-19T23:50:11.220Z,99.18
2022-11-19T23:52:40.927Z,99.33
2022-11-19T23:55:11.110Z,99.23
2022-11-19T23:57:43.432Z,99.37
